Time;durP1;ratioP1;P1;durP2;ratioP2;P2;SDS_P1;SDS_P2;PMS_P1;PMS_P2;Temp;Humidity;BMP_temperature;BMP_pressure;BME280_temperature;BME280_humidity;BME280_pressure;Samples;Min_cycle;Max_cycle;Signal;HPM_P1;HPM_P2
2023/05/23 00:00:17;;;;;;;17.15;14.65;;;16.80;99.90;;;;;;5111804;28;20635;-46
2023/05/23 00:02:43;;;;;;;16.60;14.90;;;16.80;99.90;;;;;;5111046;28;20392;-43
2023/05/23 00:05:09;;;;;;;18.98;16.88;;;16.80;99.90;;;;;;5109919;28;20019;-44
2023/05/23 00:07:34;;;;;;;17.75;15.88;;;16.80;99.90;;;;;;5111491;28;20019;-45
2023/05/23 00:10:00;;;;;;;20.45;16.70;;;16.80;99.90;;;;;;5111360;28;20024;-44
2023/05/23 00:12:26;;;;;;;18.02;16.00;;;16.80;99.90;;;;;;5111748;28;20031;-44
2023/05/23 00:14:52;;;;;;;19.70;15.57;;;16.80;99.90;;;;;;5111228;28;20019;-43
2023/05/23 00:17:18;;;;;;;21.52;16.20;;;16.80;99.90;;;;;;5111314;28;20018;-43
2023/05/23 00:19:44;;;;;;;20.35;17.02;;;16.70;99.90;;;;;;5111286;28;20077;-42
2023/05/23 00:22:11;;;;;;;24.25;19.50;;;16.80;99.90;;;;;;5110977;28;20016;-43
2023/05/23 00:24:37;;;;;;;22.83;19.90;;;16.80;99.90;;;;;;5109673;28;20102;-44
2023/05/23 00:27:03;;;;;;;23.67;19.95;;;16.70;99.90;;;;;;5110909;28;20087;-42
2023/05/23 00:29:28;;;;;;;23.40;20.77;;;16.60;99.90;;;;;;5111167;28;20039;-42
2023/05/23 00:31:54;;;;;;;21.90;19.58;;;16.50;99.90;;;;;;5109863;28;20516;-45
2023/05/23 00:34:19;;;;;;;24.08;18.83;;;16.50;99.90;;;;;;5110788;28;20076;-45
2023/05/23 00:36:46;;;;;;;22.55;19.00;;;16.50;99.90;;;;;;5111306;28;20491;-43
2023/05/23 00:39:18;;;;;;;23.05;18.63;;;16.60;99.90;;;;;;5110929;28;20426;-43
2023/05/23 00:41:51;;;;;;;20.35;17.48;;;16.50;99.90;;;;;;5110546;28;20469;-43
2023/05/23 00:44:18;;;;;;;19.67;17.38;;;16.50;99.90;;;;;;5110275;28;20015;-45
2023/05/23 00:46:46;;;;;;;18.10;15.75;;;16.60;99.90;;;;;;5110768;28;20020;-43
2023/05/23 00:49:12;;;;;;;23.00;17.58;;;16.60;99.90;;;;;;5110999;28;20101;-45
2023/05/23 00:51:37;;;;;;;22.52;17.50;;;16.50;99.90;;;;;;5110303;28;20070;-46
2023/05/23 00:54:04;;;;;;;20.77;18.58;;;16.50;99.90;;;;;;5109992;28;20746;-42
2023/05/23 00:56:30;;;;;;;19.48;17.00;;;16.50;99.90;;;;;;5110412;28;20016;-44
2023/05/23 00:58:57;;;;;;;21.55;17.58;;;16.50;99.90;;;;;;5110832;28;20023;-44
2023/05/23 01:01:23;;;;;;;21.92;16.38;;;16.50;99.90;;;;;;5110518;28;20112;-44
2023/05/23 01:03:49;;;;;;;21.30;18.70;;;16.50;99.90;;;;;;5109240;28;20027;-44
2023/05/23 01:06:16;;;;;;;26.13;21.48;;;16.50;99.90;;;;;;5109960;28;20023;-44
2023/05/23 01:08:42;;;;;;;26.83;21.25;;;16.50;99.90;;;;;;5108777;28;20027;-43
2023/05/23 01:11:31;;;;;;;22.33;19.70;;;16.50;99.90;;;;;;5110316;28;20036;-43
2023/05/23 01:14:14;;;;;;;32.58;26.00;;;16.50;99.90;;;;;;5110039;28;20023;-43
2023/05/23 01:16:56;;;;;;;33.85;26.50;;;16.50;99.90;;;;;;5108866;28;20028;-42
2023/05/23 01:20:01;;;;;;;40.38;31.38;;;16.40;99.90;;;;;;5110041;28;20015;-43
2023/05/23 01:22:38;;;;;;;42.15;31.98;;;16.50;99.90;;;;;;5109029;28;20040;-44
2023/05/23 01:25:22;;;;;;;37.40;30.33;;;16.40;99.90;;;;;;5109753;28;20020;-42
2023/05/23 01:27:53;;;;;;;39.25;29.55;;;16.40;99.90;;;;;;5109753;28;20028;-42
2023/05/23 01:30:20;;;;;;;35.92;30.20;;;16.40;99.90;;;;;;5108504;28;20030;-42
2023/05/23 01:32:49;;;;;;;33.80;26.35;;;16.30;99.90;;;;;;5109489;28;20020;-42
2023/05/23 01:35:23;;;;;;;37.50;29.52;;;16.30;99.90;;;;;;5108216;28;20061;-43
2023/05/23 01:37:49;;;;;;;32.35;26.58;;;16.30;99.90;;;;;;5109823;28;20106;-44
2023/05/23 01:40:14;;;;;;;29.50;24.48;;;16.30;99.90;;;;;;5102382;28;20499;-43
2023/05/23 01:42:40;;;;;;;38.67;27.67;;;16.30;99.90;;;;;;5103577;28;20036;-46
2023/05/23 01:45:09;;;;;;;31.65;26.35;;;16.30;99.90;;;;;;5109161;28;20615;-45
2023/05/23 01:47:36;;;;;;;35.42;26.77;;;16.20;99.90;;;;;;5109641;28;20145;-43
2023/05/23 01:50:02;;;;;;;35.08;28.27;;;16.20;99.90;;;;;;5109732;28;20093;-43
2023/05/23 01:52:29;;;;;;;41.42;30.80;;;16.30;99.90;;;;;;5109305;28;20506;-45
2023/05/23 01:54:55;;;;;;;44.58;31.55;;;16.20;99.90;;;;;;5109618;28;20024;-42
2023/05/23 01:57:23;;;;;;;47.67;33.47;;;16.20;99.90;;;;;;5109475;28;20016;-42
2023/05/23 01:59:49;;;;;;;42.28;32.35;;;16.20;99.90;;;;;;5107908;28;20503;-43
2023/05/23 02:02:15;;;;;;;43.05;32.40;;;16.20;99.90;;;;;;5109070;28;20106;-42
2023/05/23 02:04:41;;;;;;;49.47;34.00;;;16.20;99.90;;;;;;5108980;28;20722;-42
2023/05/23 02:07:07;;;;;;;55.28;38.08;;;16.20;99.90;;;;;;5109330;28;20038;-42
2023/05/23 02:09:32;;;;;;;45.58;34.28;;;16.20;99.90;;;;;;5108005;28;20031;-46
2023/05/23 02:11:58;;;;;;;50.90;36.25;;;16.20;99.90;;;;;;5108175;28;20042;-43
2023/05/23 02:14:25;;;;;;;54.78;36.30;;;16.20;99.90;;;;;;5108690;28;20022;-43
2023/05/23 02:16:52;;;;;;;51.90;36.90;;;16.20;99.90;;;;;;5108311;28;20024;-42
2023/05/23 02:19:18;;;;;;;44.20;34.40;;;16.20;99.90;;;;;;5109634;28;20020;-42
2023/05/23 02:21:43;;;;;;;50.75;36.47;;;16.20;99.90;;;;;;5109249;28;20027;-46
2023/05/23 02:24:09;;;;;;;49.90;36.50;;;16.20;99.90;;;;;;5108990;28;20032;-44
2023/05/23 02:26:35;;;;;;;42.58;31.83;;;16.10;99.90;;;;;;5109435;28;20019;-42
2023/05/23 02:29:01;;;;;;;45.22;33.33;;;16.20;99.90;;;;;;5109164;28;20219;-45
2023/05/23 02:31:27;;;;;;;43.25;32.60;;;16.10;99.90;;;;;;5109227;28;20500;-43
2023/05/23 02:33:52;;;;;;;42.30;32.05;;;16.10;99.90;;;;;;5107072;28;20027;-45
2023/05/23 02:36:18;;;;;;;43.90;33.35;;;16.20;99.90;;;;;;5107280;28;20015;-42
2023/05/23 02:38:43;;;;;;;55.08;38.00;;;16.10;99.90;;;;;;5108651;28;20027;-42
2023/05/23 02:41:09;;;;;;;50.15;39.30;;;16.20;99.90;;;;;;5108731;28;20020;-44
2023/05/23 02:43:35;;;;;;;52.13;38.55;;;16.10;99.90;;;;;;5108436;28;20028;-42
2023/05/23 02:46:00;;;;;;;50.20;38.95;;;16.10;99.90;;;;;;5108699;28;20389;-42
2023/05/23 02:48:26;;;;;;;51.33;38.13;;;16.10;99.90;;;;;;5108602;28;20088;-42
2023/05/23 02:50:51;;;;;;;50.88;38.60;;;16.20;99.90;;;;;;5108778;28;20026;-42
2023/05/23 02:53:17;;;;;;;50.75;38.63;;;16.20;99.90;;;;;;5108433;28;20058;-43
2023/05/23 02:55:42;;;;;;;57.42;42.78;;;16.10;99.90;;;;;;5107284;28;20023;-42
2023/05/23 02:58:08;;;;;;;58.28;41.10;;;16.10;99.90;;;;;;5108569;28;20023;-43
2023/05/23 03:00:34;;;;;;;61.90;43.78;;;16.10;99.90;;;;;;5108835;28;20022;-43
2023/05/23 03:03:00;;;;;;;57.38;42.58;;;16.10;99.90;;;;;;5108416;28;20031;-42
2023/05/23 03:05:26;;;;;;;60.67;43.30;;;16.10;99.90;;;;;;5097282;28;20036;-44
2023/05/23 03:07:53;;;;;;;57.88;42.42;;;16.10;99.90;;;;;;5087104;28;20032;-42
2023/05/23 03:10:19;;;;;;;65.03;43.30;;;16.10;99.90;;;;;;5088957;28;20327;-43
2023/05/23 03:12:46;;;;;;;62.47;43.33;;;16.10;99.90;;;;;;5088441;28;20552;-42
2023/05/23 03:15:12;;;;;;;64.15;44.58;;;16.10;99.90;;;;;;5085719;28;20123;-43
2023/05/23 03:17:38;;;;;;;59.95;42.35;;;16.10;99.90;;;;;;5088375;28;20078;-43
2023/05/23 03:20:08;;;;;;;61.33;44.17;;;16.10;99.90;;;;;;5090751;28;20050;-42
2023/05/23 03:22:35;;;;;;;63.35;43.17;;;16.10;99.90;;;;;;5093092;28;20077;-42
2023/05/23 03:25:01;;;;;;;57.83;40.78;;;16.10;99.90;;;;;;5092022;28;20405;-42
2023/05/23 03:27:27;;;;;;;61.47;44.72;;;16.20;99.90;;;;;;5097205;28;20026;-42
2023/05/23 03:29:52;;;;;;;57.55;43.33;;;16.20;99.90;;;;;;5093568;28;20030;-41
2023/05/23 03:32:18;;;;;;;63.47;45.42;;;16.20;99.90;;;;;;5095351;28;20024;-44
2023/05/23 03:34:43;;;;;;;67.93;47.70;;;16.10;99.90;;;;;;5093771;28;20039;-43
2023/05/23 03:37:12;;;;;;;68.50;46.53;;;16.10;99.90;;;;;;5095822;28;20435;-45
2023/05/23 03:39:37;;;;;;;71.80;47.85;;;16.10;99.90;;;;;;5094437;28;20020;-41
2023/05/23 03:42:03;;;;;;;75.95;50.70;;;16.10;99.90;;;;;;5094077;28;20057;-43
2023/05/23 03:44:32;;;;;;;68.68;46.22;;;16.10;99.90;;;;;;5092700;28;20096;-42
2023/05/23 03:46:58;;;;;;;70.47;46.67;;;16.10;99.90;;;;;;5092405;28;20036;-42
2023/05/23 03:49:24;;;;;;;70.50;47.03;;;16.10;99.90;;;;;;5110109;28;20031;-43
2023/05/23 03:51:50;;;;;;;70.28;48.20;;;15.90;99.90;;;;;;5111837;28;20639;-43
2023/05/23 03:54:16;;;;;;;69.50;48.88;;;15.80;99.90;;;;;;5093044;28;20116;-42
2023/05/23 03:56:42;;;;;;;77.15;49.45;;;15.80;99.90;;;;;;5111763;28;20048;-43
2023/05/23 03:59:08;;;;;;;71.40;48.88;;;15.70;99.90;;;;;;5111527;28;20032;-43
2023/05/23 04:01:33;;;;;;;65.47;44.25;;;15.60;99.90;;;;;;5111347;28;20016;-42
2023/05/23 04:03:59;;;;;;;59.72;40.05;;;15.50;99.90;;;;;;5110921;28;20031;-43
2023/05/23 04:06:28;;;;;;;50.38;35.75;;;15.40;99.90;;;;;;5111151;28;20020;-42
2023/05/23 04:08:54;;;;;;;55.10;38.08;;;15.30;99.90;;;;;;5111682;28;20057;-42
2023/05/23 04:11:21;;;;;;;57.90;40.55;;;15.20;99.90;;;;;;5111074;28;20027;-43
2023/05/23 04:13:46;;;;;;;55.85;37.08;;;15.10;99.90;;;;;;5110879;28;20030;-42
2023/05/23 04:16:12;;;;;;;59.28;38.50;;;15.00;99.90;;;;;;5111183;28;20095;-41
2023/05/23 04:18:38;;;;;;;48.25;34.83;;;14.90;99.90;;;;;;5110967;28;20173;-43
2023/05/23 04:21:03;;;;;;;51.28;33.88;;;14.80;99.90;;;;;;5111452;28;20016;-41
2023/05/23 04:23:29;;;;;;;57.47;36.22;;;14.70;99.90;;;;;;5110151;28;20055;-41
2023/05/23 04:25:56;;;;;;;51.33;36.00;;;14.60;99.90;;;;;;5109604;28;20028;-42
2023/05/23 04:28:22;;;;;;;50.53;35.42;;;14.60;99.90;;;;;;5109427;27;20024;-43
2023/05/23 04:30:52;;;;;;;61.60;37.72;;;14.60;99.90;;;;;;5109405;28;20434;-42
2023/05/23 04:33:18;;;;;;;52.70;36.60;;;14.60;99.90;;;;;;5108775;28;20015;-42
2023/05/23 04:35:44;;;;;;;53.75;34.40;;;14.60;99.90;;;;;;5107983;28;20043;-41
2023/05/23 04:38:09;;;;;;;53.10;34.13;;;14.60;99.90;;;;;;5108027;28;20508;-42
2023/05/23 04:40:35;;;;;;;55.25;35.95;;;14.70;99.90;;;;;;5109980;28;20026;-42
2023/05/23 04:43:00;;;;;;;54.38;36.58;;;14.70;99.90;;;;;;5110497;28;20028;-42
2023/05/23 04:45:27;;;;;;;56.78;35.30;;;14.70;99.90;;;;;;5110967;28;20080;-43
2023/05/23 04:47:55;;;;;;;46.67;32.55;;;14.70;99.90;;;;;;5106968;28;20028;-42
2023/05/23 04:50:21;;;;;;;47.72;31.38;;;14.70;99.90;;;;;;5072286;28;20090;-42
2023/05/23 04:52:47;;;;;;;40.05;29.27;;;14.70;99.90;;;;;;5087864;28;20065;-41
2023/05/23 04:55:13;;;;;;;38.95;28.45;;;14.80;99.90;;;;;;5098960;28;20103;-42
2023/05/23 04:57:39;;;;;;;34.80;26.63;;;14.80;99.90;;;;;;5110374;28;20114;-41
2023/05/23 05:00:11;;;;;;;37.13;25.10;;;14.80;99.90;;;;;;5110512;28;20016;-42
2023/05/23 05:02:37;;;;;;;33.97;24.65;;;14.70;99.90;;;;;;5110207;28;20028;-41
2023/05/23 05:05:03;;;;;;;30.02;22.85;;;14.70;99.90;;;;;;5102944;28;20023;-43
2023/05/23 05:07:34;;;;;;;32.67;23.48;;;14.70;99.90;;;;;;5109981;28;20098;-42
2023/05/23 05:10:00;;;;;;;32.30;22.70;;;14.70;99.90;;;;;;5109853;28;20023;-42
2023/05/23 05:12:26;;;;;;;31.88;21.08;;;14.80;99.90;;;;;;5109502;28;20541;-41
2023/05/23 05:14:51;;;;;;;29.88;22.00;;;14.80;99.90;;;;;;5109512;28;20054;-41
2023/05/23 05:17:18;;;;;;;33.15;20.80;;;14.80;99.90;;;;;;5109562;28;20020;-42
2023/05/23 05:19:44;;;;;;;30.20;19.17;;;14.70;99.90;;;;;;5103189;28;20031;-41
2023/05/23 05:22:10;;;;;;;32.78;20.33;;;14.80;99.90;;;;;;5109431;28;20043;-41
2023/05/23 05:24:36;;;;;;;27.27;19.40;;;14.80;99.90;;;;;;5098302;27;20058;-42
2023/05/23 05:27:02;;;;;;;27.67;19.75;;;14.80;99.90;;;;;;5094153;28;20016;-41
2023/05/23 05:29:28;;;;;;;28.52;19.95;;;14.90;99.90;;;;;;5095092;28;20032;-41
2023/05/23 05:31:54;;;;;;;26.13;19.13;;;14.90;99.90;;;;;;5094270;28;20019;-42
2023/05/23 05:34:20;;;;;;;28.38;20.45;;;14.90;99.90;;;;;;5095121;28;20096;-42
2023/05/23 05:36:46;;;;;;;27.55;19.65;;;14.90;99.90;;;;;;5091841;28;20011;-41
2023/05/23 05:39:13;;;;;;;28.48;20.55;;;15.00;99.90;;;;;;5093267;28;20020;-42
2023/05/23 05:41:39;;;;;;;31.23;21.13;;;15.00;99.90;;;;;;5095848;28;20019;-41
2023/05/23 05:44:06;;;;;;;29.83;20.35;;;15.10;99.90;;;;;;5093432;28;20027;-42
2023/05/23 05:46:31;;;;;;;25.98;19.70;;;15.20;99.90;;;;;;5102038;28;20114;-42
2023/05/23 05:48:57;;;;;;;25.58;18.70;;;15.40;99.90;;;;;;5108941;28;20107;-42
2023/05/23 05:51:23;;;;;;;29.33;18.98;;;15.40;99.90;;;;;;5094950;28;20224;-42
2023/05/23 05:53:49;;;;;;;27.25;19.35;;;15.30;99.90;;;;;;5106221;28;20023;-42
2023/05/23 05:56:15;;;;;;;32.20;21.08;;;15.40;99.90;;;;;;5091938;28;20028;-42
2023/05/23 05:58:41;;;;;;;29.80;20.17;;;15.50;99.90;;;;;;5093871;28;20039;-42
2023/05/23 06:01:06;;;;;;;26.45;18.40;;;15.50;99.90;;;;;;5093020;28;20050;-42
2023/05/23 06:03:32;;;;;;;32.05;20.63;;;15.50;99.90;;;;;;5096036;28;20024;-43
2023/05/23 06:05:58;;;;;;;24.17;17.35;;;15.60;99.90;;;;;;5109007;28;20048;-41
2023/05/23 06:08:24;;;;;;;28.70;19.67;;;15.70;99.90;;;;;;5109413;28;20027;-41
2023/05/23 06:10:50;;;;;;;29.38;20.77;;;15.60;99.90;;;;;;5107697;28;20026;-42
2023/05/23 06:13:16;;;;;;;28.33;20.83;;;15.50;99.90;;;;;;5106753;28;20097;-41
2023/05/23 06:15:42;;;;;;;26.88;18.50;;;15.40;99.90;;;;;;5109516;28;20038;-42
2023/05/23 06:18:08;;;;;;;28.35;19.77;;;15.30;99.90;;;;;;5109313;28;20043;-42
2023/05/23 06:20:33;;;;;;;27.88;19.60;;;15.30;99.90;;;;;;5109105;28;20066;-42
2023/05/23 06:22:59;;;;;;;29.13;21.35;;;15.20;99.90;;;;;;5108640;28;20469;-40
2023/05/23 06:25:24;;;;;;;30.23;21.90;;;15.10;99.90;;;;;;5108978;28;20023;-41
2023/05/23 06:27:50;;;;;;;32.25;20.70;;;15.10;99.90;;;;;;5109270;28;20028;-42
2023/05/23 06:30:16;;;;;;;27.45;20.77;;;15.10;99.90;;;;;;5109255;28;20019;-41
2023/05/23 06:32:41;;;;;;;30.40;20.27;;;15.00;99.90;;;;;;5107774;28;20055;-41
2023/05/23 06:35:07;;;;;;;27.25;19.67;;;15.00;99.90;;;;;;5109017;28;20095;-41
2023/05/23 06:37:33;;;;;;;34.95;22.15;;;14.90;99.90;;;;;;5108756;28;20065;-41
2023/05/23 06:39:59;;;;;;;30.33;21.35;;;14.80;99.90;;;;;;5108793;28;20012;-41
2023/05/23 06:42:24;;;;;;;34.78;22.95;;;14.80;99.90;;;;;;5108570;28;20358;-41
2023/05/23 06:44:50;;;;;;;28.70;21.35;;;14.80;99.90;;;;;;5108707;28;20069;-42
2023/05/23 06:47:15;;;;;;;27.48;18.55;;;14.80;99.90;;;;;;5108710;28;20076;-41
2023/05/23 06:49:42;;;;;;;31.45;22.02;;;14.90;99.90;;;;;;5108718;28;20016;-42
2023/05/23 06:52:07;;;;;;;29.83;20.80;;;14.80;99.90;;;;;;5108670;28;20103;-40
2023/05/23 06:54:33;;;;;;;33.47;21.77;;;14.70;99.90;;;;;;5108244;28;20110;-43
2023/05/23 06:56:58;;;;;;;35.50;23.98;;;14.70;99.90;;;;;;5107196;28;20016;-41
2023/05/23 06:59:24;;;;;;;32.50;22.50;;;14.60;99.90;;;;;;5108412;28;20073;-41
2023/05/23 07:01:49;;;;;;;31.33;21.70;;;14.70;99.90;;;;;;5109615;28;20082;-41
2023/05/23 07:04:15;;;;;;;29.25;21.02;;;14.80;99.90;;;;;;5112412;28;20065;-40
2023/05/23 07:06:41;;;;;;;29.88;22.60;;;14.80;99.90;;;;;;5112642;28;20027;-42
2023/05/23 07:09:06;;;;;;;31.85;21.48;;;14.90;99.90;;;;;;5112498;28;20451;-40
2023/05/23 07:11:32;;;;;;;34.92;22.15;;;15.00;99.90;;;;;;5112413;28;20032;-40
2023/05/23 07:13:58;;;;;;;28.08;19.98;;;15.00;99.90;;;;;;5111972;28;20020;-41
2023/05/23 07:16:24;;;;;;;30.13;19.70;;;15.00;99.90;;;;;;5112407;28;20020;-41
2023/05/23 07:18:49;;;;;;;28.65;19.38;;;14.90;99.90;;;;;;5112183;28;20383;-42
2023/05/23 07:21:15;;;;;;;27.65;19.75;;;14.90;99.90;;;;;;5112401;28;20012;-40
2023/05/23 07:23:40;;;;;;;35.33;20.55;;;14.90;99.90;;;;;;5111033;28;20034;-40
2023/05/23 07:26:08;;;;;;;29.02;19.20;;;14.80;99.90;;;;;;5112699;28;20023;-41
2023/05/23 07:28:35;;;;;;;27.15;19.83;;;14.80;99.90;;;;;;5098125;28;20425;-42
2023/05/23 07:31:00;;;;;;;30.17;19.08;;;14.80;99.90;;;;;;5084979;28;20553;-42
2023/05/23 07:33:26;;;;;;;27.77;19.25;;;14.90;99.90;;;;;;5109740;28;20028;-42
2023/05/23 07:35:51;;;;;;;25.80;19.33;;;14.90;99.90;;;;;;5093872;28;20054;-40
2023/05/23 07:38:17;;;;;;;30.17;19.25;;;14.90;99.90;;;;;;5110280;28;20023;-43
2023/05/23 07:40:42;;;;;;;27.40;17.17;;;14.90;99.90;;;;;;5111510;28;20089;-40
2023/05/23 07:43:08;;;;;;;29.70;18.10;;;14.90;99.90;;;;;;5111174;28;20024;-41
2023/05/23 07:45:33;;;;;;;27.33;17.52;;;14.80;99.90;;;;;;5111298;28;20500;-41
2023/05/23 07:47:59;;;;;;;24.77;16.33;;;14.80;99.90;;;;;;5111297;28;20043;-41
2023/05/23 07:50:26;;;;;;;28.77;18.88;;;14.80;99.90;;;;;;5103079;28;20107;-40
2023/05/23 07:52:52;;;;;;;23.30;16.58;;;14.90;99.90;;;;;;5110820;28;20106;-40
2023/05/23 07:55:18;;;;;;;23.55;17.17;;;14.90;99.90;;;;;;5111347;28;20012;-40
2023/05/23 07:57:43;;;;;;;23.90;15.80;;;14.80;99.90;;;;;;5110105;28;20039;-41
2023/05/23 08:00:10;;;;;;;23.02;15.55;;;14.80;99.90;;;;;;5109936;28;20054;-42
2023/05/23 08:02:36;;;;;;;22.30;16.00;;;14.80;99.90;;;;;;5098172;28;20034;-43
2023/05/23 08:05:02;;;;;;;24.40;14.93;;;14.80;99.90;;;;;;5092683;28;20024;-41
2023/05/23 08:07:27;;;;;;;21.45;14.80;;;14.90;99.90;;;;;;5094979;28;20031;-42
2023/05/23 08:09:53;;;;;;;20.77;15.32;;;14.90;99.90;;;;;;5093977;28;20077;-42
2023/05/23 08:12:19;;;;;;;23.70;14.93;;;14.90;99.90;;;;;;5095042;28;20024;-40
2023/05/23 08:14:45;;;;;;;22.80;14.65;;;14.90;99.90;;;;;;5094218;28;20107;-41
2023/05/23 08:17:12;;;;;;;23.30;14.75;;;15.00;99.90;;;;;;5094232;28;20016;-40
2023/05/23 08:19:38;;;;;;;16.23;12.82;;;14.90;99.90;;;;;;5095503;28;20027;-40
2023/05/23 08:22:04;;;;;;;22.70;14.13;;;14.90;99.90;;;;;;5093606;28;20027;-42
2023/05/23 08:24:30;;;;;;;23.00;12.43;;;15.00;99.90;;;;;;5095211;28;20042;-40
2023/05/23 08:26:56;;;;;;;15.15;12.10;;;15.00;99.90;;;;;;5094082;28;20024;-40
2023/05/23 08:29:22;;;;;;;13.10;11.18;;;15.00;99.90;;;;;;5095702;28;20020;-40
2023/05/23 08:31:47;;;;;;;14.63;10.57;;;15.00;99.90;;;;;;5078452;28;20035;-41
2023/05/23 08:34:13;;;;;;;15.23;11.32;;;15.00;99.90;;;;;;5091392;28;20050;-40
2023/05/23 08:36:41;;;;;;;11.32;9.68;;;15.00;99.90;;;;;;5095177;28;20167;-41
2023/05/23 08:39:07;;;;;;;13.18;9.63;;;15.00;99.90;;;;;;5091867;28;20040;-45
2023/05/23 08:41:34;;;;;;;11.98;9.95;;;15.00;99.90;;;;;;5092226;28;20047;-40
2023/05/23 08:44:00;;;;;;;11.15;9.60;;;15.10;99.90;;;;;;5093448;28;20036;-41
2023/05/23 08:46:26;;;;;;;10.65;9.25;;;15.00;99.90;;;;;;5094883;28;20028;-42
2023/05/23 08:48:53;;;;;;;11.32;9.45;;;15.00;99.90;;;;;;5090719;28;20109;-42
2023/05/23 08:51:25;;;;;;;9.70;7.78;;;15.00;99.90;;;;;;5092826;28;20024;-41
2023/05/23 08:53:52;;;;;;;13.68;8.40;;;15.00;99.90;;;;;;5090368;28;20031;-41
2023/05/23 08:56:18;;;;;;;11.80;9.00;;;15.00;99.90;;;;;;5094388;28;20061;-40
2023/05/23 08:58:46;;;;;;;10.68;8.15;;;15.00;99.90;;;;;;5093579;28;20264;-40
2023/05/23 09:01:12;;;;;;;9.45;7.97;;;15.10;99.90;;;;;;5093956;28;20100;-41
2023/05/23 09:03:41;;;;;;;9.95;8.00;;;15.10;99.90;;;;;;5090641;28;20027;-41
2023/05/23 09:06:07;;;;;;;10.00;7.65;;;15.10;99.90;;;;;;5093091;28;20024;-41
2023/05/23 09:08:33;;;;;;;9.55;8.07;;;15.10;99.90;;;;;;5094840;28;20024;-41
2023/05/23 09:11:01;;;;;;;8.40;7.30;;;15.00;99.90;;;;;;5092958;28;20059;-41
2023/05/23 09:13:29;;;;;;;13.02;10.98;;;15.00;99.90;;;;;;5094588;28;20024;-41
2023/05/23 09:16:01;;;;;;;10.07;8.25;;;15.00;99.90;;;;;;5093560;28;20051;-41
2023/05/23 09:18:32;;;;;;;8.80;7.97;;;14.90;99.90;;;;;;5093290;28;20522;-41
2023/05/23 09:20:58;;;;;;;12.20;9.50;;;14.80;99.90;;;;;;5093515;28;20020;-40
2023/05/23 09:23:23;;;;;;;12.65;10.02;;;14.80;99.90;;;;;;5094417;28;20028;-42
2023/05/23 09:25:49;;;;;;;12.45;9.80;;;14.80;99.90;;;;;;5092461;28;20031;-42
2023/05/23 09:28:15;;;;;;;12.75;10.30;;;14.80;99.90;;;;;;5093609;28;20543;-41
2023/05/23 09:30:40;;;;;;;12.57;10.35;;;14.80;99.90;;;;;;5092207;28;20015;-41
2023/05/23 09:33:06;;;;;;;12.70;10.55;;;14.80;99.90;;;;;;5080522;28;20033;-40
2023/05/23 09:35:32;;;;;;;12.82;11.52;;;14.80;99.90;;;;;;5092693;28;20023;-42
2023/05/23 09:37:58;;;;;;;14.95;12.27;;;14.70;99.90;;;;;;5090805;28;20089;-40
2023/05/23 09:40:29;;;;;;;18.38;13.95;;;14.70;99.90;;;;;;5092963;28;20020;-41
2023/05/23 09:43:00;;;;;;;15.70;13.93;;;14.60;99.90;;;;;;5092261;28;20474;-41
2023/05/23 09:45:30;;;;;;;19.40;15.23;;;14.60;99.90;;;;;;5094861;28;20023;-42
2023/05/23 09:47:55;;;;;;;20.42;16.77;;;14.60;99.90;;;;;;5092776;28;20365;-41
2023/05/23 09:50:21;;;;;;;21.85;18.60;;;14.50;99.90;;;;;;5094225;28;20383;-41
2023/05/23 09:52:47;;;;;;;22.40;18.73;;;14.50;99.90;;;;;;5091467;28;20032;-41
2023/05/23 09:55:13;;;;;;;23.17;17.13;;;14.50;99.90;;;;;;5090864;28;20016;-41
2023/05/23 09:57:44;;;;;;;24.00;18.92;;;14.50;99.90;;;;;;5093430;28;20014;-40
2023/05/23 10:00:13;;;;;;;27.45;16.92;;;14.60;99.90;;;;;;5086392;28;20051;-42
2023/05/23 10:02:53;;;;;;;21.88;17.58;;;14.60;99.90;;;;;;5090076;28;20098;-41
2023/05/23 10:05:46;;;;;;;18.33;15.57;;;14.60;99.90;;;;;;5088912;28;20016;-42
2023/05/23 10:08:32;;;;;;;19.10;15.15;;;14.50;99.90;;;;;;5069330;28;20043;-41
2023/05/23 10:11:13;;;;;;;17.92;14.70;;;14.50;99.90;;;;;;5090702;28;20432;-41
2023/05/23 10:13:48;;;;;;;14.25;12.27;;;14.50;99.90;;;;;;5089877;28;20051;-41
2023/05/23 10:16:13;;;;;;;15.55;12.68;;;14.50;99.90;;;;;;5090111;28;20905;-40
2023/05/23 10:18:43;;;;;;;17.20;12.10;;;14.50;99.90;;;;;;5091067;28;20062;-41
2023/05/23 10:21:17;;;;;;;13.93;11.52;;;14.60;99.90;;;;;;5090004;28;20037;-42
2023/05/23 10:23:45;;;;;;;14.15;9.95;;;14.50;99.90;;;;;;5090353;28;20086;-41
2023/05/23 10:26:11;;;;;;;14.15;11.23;;;14.50;99.90;;;;;;5091532;28;20016;-41
2023/05/23 10:28:37;;;;;;;11.38;9.73;;;14.50;99.90;;;;;;5092696;28;20039;-41
2023/05/23 10:31:03;;;;;;;12.52;9.48;;;14.50;99.90;;;;;;5091067;28;20024;-41
2023/05/23 10:33:40;;;;;;;15.02;11.00;;;14.50;99.90;;;;;;5086278;28;20083;-41
2023/05/23 10:36:16;;;;;;;16.70;11.18;;;14.50;99.90;;;;;;5088287;28;20477;-41
2023/05/23 10:39:07;;;;;;;13.70;10.55;;;14.40;99.90;;;;;;5095951;28;20047;-42
2023/05/23 10:41:42;;;;;;;13.57;10.82;;;14.50;99.90;;;;;;5096030;28;20016;-42
2023/05/23 10:44:30;;;;;;;15.07;10.45;;;14.40;99.90;;;;;;5095515;28;20229;-41
2023/05/23 10:47:00;;;;;;;14.68;9.50;;;14.40;99.90;;;;;;5094016;28;20074;-42
2023/05/23 10:49:38;;;;;;;13.00;9.65;;;14.40;99.90;;;;;;5097107;28;20028;-41
2023/05/23 10:52:06;;;;;;;12.50;8.77;;;14.30;99.90;;;;;;5095625;28;20217;-41
2023/05/23 10:54:36;;;;;;;15.07;9.57;;;14.20;99.90;;;;;;5096529;28;20016;-42
2023/05/23 10:57:03;;;;;;;12.10;9.57;;;14.20;99.90;;;;;;5095314;28;20020;-41
2023/05/23 10:59:29;;;;;;;13.13;9.40;;;14.20;99.90;;;;;;5097157;28;20024;-41
2023/05/23 11:01:55;;;;;;;15.70;9.73;;;14.10;99.90;;;;;;5096038;28;20020;-41
2023/05/23 11:04:26;;;;;;;13.77;9.02;;;14.00;99.90;;;;;;5095319;28;20343;-41
2023/05/23 11:06:54;;;;;;;12.43;8.98;;;14.00;99.90;;;;;;5090255;28;20024;-41
2023/05/23 11:09:20;;;;;;;14.55;9.23;;;13.90;99.90;;;;;;5097022;28;20073;-41
2023/05/23 11:12:06;;;;;;;16.40;10.30;;;13.80;99.90;;;;;;5094414;28;20049;-41
2023/05/23 11:14:36;;;;;;;19.25;10.57;;;13.80;99.90;;;;;;5095540;28;20161;-41
2023/05/23 11:17:11;;;;;;;17.08;10.80;;;13.80;99.90;;;;;;5093127;28;20016;-41
2023/05/23 11:19:54;;;;;;;17.40;11.05;;;13.70;99.90;;;;;;5092127;28;20072;-41
2023/05/23 11:22:21;;;;;;;17.25;11.25;;;13.80;99.90;;;;;;5095946;28;20047;-41
2023/05/23 11:24:54;;;;;;;17.90;11.02;;;13.60;99.90;;;;;;5087582;28;20020;-40
2023/05/23 11:27:40;;;;;;;23.08;12.40;;;13.60;99.90;;;;;;5095078;28;20027;-41
2023/05/23 11:30:12;;;;;;;20.60;12.65;;;13.60;99.90;;;;;;5094794;28;20530;-40
2023/05/23 11:32:38;;;;;;;18.73;12.82;;;13.50;99.90;;;;;;5090340;28;20054;-43
2023/05/23 11:35:11;;;;;;;18.92;12.35;;;13.50;99.90;;;;;;5094822;28;20470;-41
2023/05/23 11:37:39;;;;;;;16.95;11.15;;;13.50;99.90;;;;;;5093132;28;20103;-41
2023/05/23 11:40:47;;;;;;;21.17;12.40;;;13.40;99.90;;;;;;5092928;28;20019;-41
2023/05/23 11:43:15;;;;;;;20.92;11.20;;;13.40;99.90;;;;;;5047386;28;20061;-41
2023/05/23 11:45:41;;;;;;;17.48;10.82;;;13.30;99.90;;;;;;5048124;28;20025;-42
2023/05/23 11:48:10;;;;;;;19.48;10.88;;;13.40;99.90;;;;;;5067305;28;20048;-41
2023/05/23 11:51:02;;;;;;;20.70;10.10;;;13.30;99.90;;;;;;5093141;28;20043;-41
2023/05/23 11:53:28;;;;;;;15.43;9.85;;;13.30;99.90;;;;;;5093970;28;20096;-40
2023/05/23 11:55:57;;;;;;;18.10;10.07;;;13.20;99.90;;;;;;5094594;28;20016;-51
2023/05/23 11:58:28;;;;;;;18.98;9.35;;;13.20;99.90;;;;;;5096203;28;20021;-48
2023/05/23 12:01:05;;;;;;;21.42;10.50;;;13.20;99.90;;;;;;5094405;28;20077;-49
2023/05/23 12:03:31;;;;;;;18.48;8.70;;;13.00;99.90;;;;;;5093520;28;20012;-48
2023/05/23 12:05:57;;;;;;;20.25;9.82;;;13.00;99.90;;;;;;5094883;28;20028;-49
2023/05/23 12:08:26;;;;;;;24.05;15.35;;;12.80;99.90;;;;;;5096411;28;20081;-48
2023/05/23 12:10:55;;;;;;;24.55;10.13;;;12.80;99.90;;;;;;5094870;28;20020;-50
2023/05/23 12:13:24;;;;;;;16.00;8.45;;;12.90;99.90;;;;;;5095205;28;20028;-51
2023/05/23 12:15:58;;;;;;;22.30;9.23;;;12.80;99.90;;;;;;5092057;28;20095;-50
2023/05/23 12:18:27;;;;;;;16.05;8.23;;;12.80;99.90;;;;;;5095930;28;20090;-52
2023/05/23 12:20:53;;;;;;;24.50;9.27;;;12.80;99.90;;;;;;5087998;28;20541;-49
2023/05/23 12:23:22;;;;;;;18.42;9.50;;;12.80;99.90;;;;;;5092876;28;20032;-49
2023/05/23 12:25:55;;;;;;;17.90;8.80;;;12.80;99.90;;;;;;5093901;28;20211;-51
2023/05/23 12:28:44;;;;;;;13.60;9.18;;;12.80;99.90;;;;;;5090547;28;20099;-52
2023/05/23 12:31:20;;;;;;;17.92;8.05;;;12.80;99.90;;;;;;5089299;28;20024;-50